sensor_id;sensor_type;location;lat;lon;timestamp;P1;durP1;ratioP1;P2;durP2;ratioP2
39848;SDS011;25518;47.878;15.914;2023-12-29T00:02:33;7.03;;;3.87;;
39848;SDS011;25518;47.878;15.914;2023-12-29T00:05:25;7.28;;;3.22;;
39848;SDS011;25518;47.878;15.914;2023-12-29T00:08:17;8.38;;;3.67;;
39848;SDS011;25518;47.878;15.914;2023-12-29T00:11:15;6.60;;;3.67;;
39848;SDS011;25518;47.878;15.914;2023-12-29T00:14:07;8.80;;;4.00;;
39848;SDS011;25518;47.878;15.914;2023-12-29T00:16:59;13.60;;;3.73;;
39848;SDS011;25518;47.878;15.914;2023-12-29T00:19:51;11.40;;;4.30;;
39848;SDS011;25518;47.878;15.914;2023-12-29T00:22:44;13.63;;;5.28;;
39848;SDS011;25518;47.878;15.914;2023-12-29T00:25:35;15.10;;;5.95;;
39848;SDS011;25518;47.878;15.914;2023-12-29T00:28:27;10.80;;;5.30;;
39848;SDS011;25518;47.878;15.914;2023-12-29T00:31:19;12.43;;;5.95;;
39848;SDS011;25518;47.878;15.914;2023-12-29T00:34:10;15.13;;;6.97;;
39848;SDS011;25518;47.878;15.914;2023-12-29T00:37:01;10.98;;;4.80;;
39848;SDS011;25518;47.878;15.914;2023-12-29T00:39:53;12.93;;;5.93;;
39848;SDS011;25518;47.878;15.914;2023-12-29T00:42:45;16.45;;;6.75;;
39848;SDS011;25518;47.878;15.914;2023-12-29T00:45:36;13.65;;;6.47;;
39848;SDS011;25518;47.878;15.914;2023-12-29T00:48:27;15.35;;;7.10;;
39848;SDS011;25518;47.878;15.914;2023-12-29T00:51:19;17.73;;;7.70;;
39848;SDS011;25518;47.878;15.914;2023-12-29T00:54:10;16.25;;;7.45;;
39848;SDS011;25518;47.878;15.914;2023-12-29T00:57:02;16.43;;;6.97;;
39848;SDS011;25518;47.878;15.914;2023-12-29T00:59:53;24.10;;;7.80;;
39848;SDS011;25518;47.878;15.914;2023-12-29T01:02:44;15.40;;;6.65;;
39848;SDS011;25518;47.878;15.914;2023-12-29T01:05:36;14.15;;;6.13;;
39848;SDS011;25518;47.878;15.914;2023-12-29T01:08:27;12.02;;;5.32;;
39848;SDS011;25518;47.878;15.914;2023-12-29T01:11:19;12.65;;;5.80;;
39848;SDS011;25518;47.878;15.914;2023-12-29T01:14:10;10.82;;;5.00;;
39848;SDS011;25518;47.878;15.914;2023-12-29T01:17:01;14.10;;;6.53;;
39848;SDS011;25518;47.878;15.914;2023-12-29T01:19:53;13.07;;;6.40;;
39848;SDS011;25518;47.878;15.914;2023-12-29T01:22:45;12.30;;;5.13;;
39848;SDS011;25518;47.878;15.914;2023-12-29T01:25:36;11.98;;;5.10;;
39848;SDS011;25518;47.878;15.914;2023-12-29T01:28:28;9.55;;;4.72;;
39848;SDS011;25518;47.878;15.914;2023-12-29T01:31:19;16.38;;;5.53;;
39848;SDS011;25518;47.878;15.914;2023-12-29T01:34:10;14.50;;;5.50;;
39848;SDS011;25518;47.878;15.914;2023-12-29T01:37:02;14.07;;;6.40;;
39848;SDS011;25518;47.878;15.914;2023-12-29T01:39:54;12.57;;;6.43;;
39848;SDS011;25518;47.878;15.914;2023-12-29T01:42:45;14.67;;;6.40;;
39848;SDS011;25518;47.878;15.914;2023-12-29T01:45:37;14.23;;;5.93;;
39848;SDS011;25518;47.878;15.914;2023-12-29T01:48:28;11.00;;;5.40;;
39848;SDS011;25518;47.878;15.914;2023-12-29T01:51:20;15.35;;;5.60;;
39848;SDS011;25518;47.878;15.914;2023-12-29T01:54:15;15.90;;;5.87;;
39848;SDS011;25518;47.878;15.914;2023-12-29T01:57:07;10.73;;;5.03;;
39848;SDS011;25518;47.878;15.914;2023-12-29T01:59:59;8.40;;;4.38;;
39848;SDS011;25518;47.878;15.914;2023-12-29T02:02:50;7.47;;;4.00;;
39848;SDS011;25518;47.878;15.914;2023-12-29T02:05:42;9.17;;;4.33;;
39848;SDS011;25518;47.878;15.914;2023-12-29T02:08:36;7.70;;;3.80;;
39848;SDS011;25518;47.878;15.914;2023-12-29T02:11:28;7.65;;;3.33;;
39848;SDS011;25518;47.878;15.914;2023-12-29T02:14:19;9.45;;;3.97;;
39848;SDS011;25518;47.878;15.914;2023-12-29T02:17:21;7.50;;;3.47;;
39848;SDS011;25518;47.878;15.914;2023-12-29T02:20:17;8.90;;;3.78;;
39848;SDS011;25518;47.878;15.914;2023-12-29T02:23:10;11.73;;;4.82;;
39848;SDS011;25518;47.878;15.914;2023-12-29T02:26:02;10.40;;;4.88;;
39848;SDS011;25518;47.878;15.914;2023-12-29T02:29:01;10.15;;;4.60;;
39848;SDS011;25518;47.878;15.914;2023-12-29T02:31:57;10.60;;;4.30;;
39848;SDS011;25518;47.878;15.914;2023-12-29T02:34:51;8.55;;;3.60;;
39848;SDS011;25518;47.878;15.914;2023-12-29T02:37:43;9.95;;;4.10;;
39848;SDS011;25518;47.878;15.914;2023-12-29T02:40:36;8.27;;;4.38;;
39848;SDS011;25518;47.878;15.914;2023-12-29T02:43:27;9.27;;;3.80;;
39848;SDS011;25518;47.878;15.914;2023-12-29T02:46:21;9.77;;;4.35;;
39848;SDS011;25518;47.878;15.914;2023-12-29T02:49:13;7.68;;;4.60;;
39848;SDS011;25518;47.878;15.914;2023-12-29T02:52:04;13.00;;;4.60;;
39848;SDS011;25518;47.878;15.914;2023-12-29T02:54:56;9.00;;;5.00;;
39848;SDS011;25518;47.878;15.914;2023-12-29T02:57:47;9.43;;;4.68;;
39848;SDS011;25518;47.878;15.914;2023-12-29T03:00:39;9.88;;;5.57;;
39848;SDS011;25518;47.878;15.914;2023-12-29T03:03:30;9.02;;;4.93;;
39848;SDS011;25518;47.878;15.914;2023-12-29T03:06:21;10.48;;;5.13;;
39848;SDS011;25518;47.878;15.914;2023-12-29T03:09:13;9.40;;;5.28;;
39848;SDS011;25518;47.878;15.914;2023-12-29T03:12:04;13.80;;;6.53;;
39848;SDS011;25518;47.878;15.914;2023-12-29T03:14:56;11.82;;;5.93;;
39848;SDS011;25518;47.878;15.914;2023-12-29T03:17:48;9.53;;;4.83;;
39848;SDS011;25518;47.878;15.914;2023-12-29T03:20:39;11.68;;;5.75;;
39848;SDS011;25518;47.878;15.914;2023-12-29T03:23:31;10.75;;;5.30;;
39848;SDS011;25518;47.878;15.914;2023-12-29T03:26:22;12.48;;;5.40;;
39848;SDS011;25518;47.878;15.914;2023-12-29T03:29:13;9.50;;;5.65;;
39848;SDS011;25518;47.878;15.914;2023-12-29T03:32:04;9.13;;;4.95;;
39848;SDS011;25518;47.878;15.914;2023-12-29T03:34:57;9.10;;;4.70;;
39848;SDS011;25518;47.878;15.914;2023-12-29T03:37:49;9.63;;;4.72;;
39848;SDS011;25518;47.878;15.914;2023-12-29T03:40:40;8.10;;;3.58;;
39848;SDS011;25518;47.878;15.914;2023-12-29T03:43:31;6.78;;;3.08;;
39848;SDS011;25518;47.878;15.914;2023-12-29T03:46:23;5.15;;;2.50;;
39848;SDS011;25518;47.878;15.914;2023-12-29T03:49:14;5.22;;;1.92;;
39848;SDS011;25518;47.878;15.914;2023-12-29T03:52:06;3.30;;;1.63;;
39848;SDS011;25518;47.878;15.914;2023-12-29T03:54:57;4.15;;;1.70;;
39848;SDS011;25518;47.878;15.914;2023-12-29T03:57:48;2.97;;;1.42;;
39848;SDS011;25518;47.878;15.914;2023-12-29T04:00:40;4.90;;;1.90;;
39848;SDS011;25518;47.878;15.914;2023-12-29T04:03:32;4.82;;;2.20;;
39848;SDS011;25518;47.878;15.914;2023-12-29T04:06:24;5.45;;;2.20;;
39848;SDS011;25518;47.878;15.914;2023-12-29T04:09:15;5.45;;;2.42;;
39848;SDS011;25518;47.878;15.914;2023-12-29T04:12:07;6.25;;;2.55;;
39848;SDS011;25518;47.878;15.914;2023-12-29T04:14:58;5.75;;;2.22;;
39848;SDS011;25518;47.878;15.914;2023-12-29T04:17:49;4.50;;;2.40;;
39848;SDS011;25518;47.878;15.914;2023-12-29T04:20:41;4.03;;;1.87;;
39848;SDS011;25518;47.878;15.914;2023-12-29T04:23:32;3.80;;;1.77;;
39848;SDS011;25518;47.878;15.914;2023-12-29T04:26:23;3.35;;;1.60;;
39848;SDS011;25518;47.878;15.914;2023-12-29T04:29:15;3.65;;;1.60;;
39848;SDS011;25518;47.878;15.914;2023-12-29T04:32:06;5.88;;;2.28;;
39848;SDS011;25518;47.878;15.914;2023-12-29T04:34:57;5.50;;;1.90;;
39848;SDS011;25518;47.878;15.914;2023-12-29T04:37:49;5.82;;;2.60;;
39848;SDS011;25518;47.878;15.914;2023-12-29T04:40:41;4.57;;;2.05;;
39848;SDS011;25518;47.878;15.914;2023-12-29T04:43:32;5.78;;;1.90;;
39848;SDS011;25518;47.878;15.914;2023-12-29T04:46:24;4.95;;;1.98;;
39848;SDS011;25518;47.878;15.914;2023-12-29T04:49:16;3.65;;;1.77;;
39848;SDS011;25518;47.878;15.914;2023-12-29T04:52:07;2.78;;;1.15;;
39848;SDS011;25518;47.878;15.914;2023-12-29T04:54:58;5.13;;;2.20;;
39848;SDS011;25518;47.878;15.914;2023-12-29T04:57:50;4.40;;;2.53;;
39848;SDS011;25518;47.878;15.914;2023-12-29T05:00:41;7.72;;;3.53;;
39848;SDS011;25518;47.878;15.914;2023-12-29T05:03:33;5.63;;;2.60;;
39848;SDS011;25518;47.878;15.914;2023-12-29T05:06:24;6.90;;;2.78;;
39848;SDS011;25518;47.878;15.914;2023-12-29T05:09:15;5.65;;;2.67;;
39848;SDS011;25518;47.878;15.914;2023-12-29T05:12:07;4.63;;;2.35;;
39848;SDS011;25518;47.878;15.914;2023-12-29T05:14:58;5.38;;;1.42;;
39848;SDS011;25518;47.878;15.914;2023-12-29T05:17:49;5.22;;;2.47;;
39848;SDS011;25518;47.878;15.914;2023-12-29T05:20:41;4.47;;;2.00;;
39848;SDS011;25518;47.878;15.914;2023-12-29T05:23:33;6.00;;;2.28;;
39848;SDS011;25518;47.878;15.914;2023-12-29T05:26:25;3.90;;;2.08;;
39848;SDS011;25518;47.878;15.914;2023-12-29T05:29:16;3.83;;;1.80;;
39848;SDS011;25518;47.878;15.914;2023-12-29T05:32:07;4.60;;;1.97;;
39848;SDS011;25518;47.878;15.914;2023-12-29T05:34:59;4.85;;;2.47;;
39848;SDS011;25518;47.878;15.914;2023-12-29T05:37:50;6.25;;;2.60;;
39848;SDS011;25518;47.878;15.914;2023-12-29T05:40:41;3.92;;;2.00;;
39848;SDS011;25518;47.878;15.914;2023-12-29T05:43:33;4.80;;;2.35;;
39848;SDS011;25518;47.878;15.914;2023-12-29T05:46:25;4.57;;;1.90;;
39848;SDS011;25518;47.878;15.914;2023-12-29T05:49:16;6.28;;;3.08;;
39848;SDS011;25518;47.878;15.914;2023-12-29T05:52:07;4.50;;;2.35;;
39848;SDS011;25518;47.878;15.914;2023-12-29T05:54:59;5.93;;;2.65;;
39848;SDS011;25518;47.878;15.914;2023-12-29T05:57:50;6.95;;;3.72;;
39848;SDS011;25518;47.878;15.914;2023-12-29T06:00:41;5.18;;;2.08;;
39848;SDS011;25518;47.878;15.914;2023-12-29T06:03:35;3.80;;;2.00;;
39848;SDS011;25518;47.878;15.914;2023-12-29T06:06:26;4.63;;;2.50;;
39848;SDS011;25518;47.878;15.914;2023-12-29T06:09:17;5.18;;;2.50;;
39848;SDS011;25518;47.878;15.914;2023-12-29T06:12:09;3.35;;;1.63;;
39848;SDS011;25518;47.878;15.914;2023-12-29T06:15:01;9.57;;;3.97;;
39848;SDS011;25518;47.878;15.914;2023-12-29T06:17:53;6.57;;;3.35;;
39848;SDS011;25518;47.878;15.914;2023-12-29T06:20:44;6.05;;;3.20;;
39848;SDS011;25518;47.878;15.914;2023-12-29T06:23:36;7.03;;;3.50;;
39848;SDS011;25518;47.878;15.914;2023-12-29T06:26:27;7.40;;;3.60;;
39848;SDS011;25518;47.878;15.914;2023-12-29T06:29:18;6.20;;;3.55;;
39848;SDS011;25518;47.878;15.914;2023-12-29T06:32:10;7.13;;;3.58;;
39848;SDS011;25518;47.878;15.914;2023-12-29T06:35:01;5.55;;;2.88;;
39848;SDS011;25518;47.878;15.914;2023-12-29T06:37:53;6.40;;;3.55;;
39848;SDS011;25518;47.878;15.914;2023-12-29T06:40:44;10.23;;;3.83;;
39848;SDS011;25518;47.878;15.914;2023-12-29T06:43:36;6.40;;;3.13;;
39848;SDS011;25518;47.878;15.914;2023-12-29T06:46:27;9.07;;;3.60;;
39848;SDS011;25518;47.878;15.914;2023-12-29T06:49:18;8.80;;;4.00;;
39848;SDS011;25518;47.878;15.914;2023-12-29T06:52:10;4.30;;;1.77;;
39848;SDS011;25518;47.878;15.914;2023-12-29T06:55:01;1.75;;;0.88;;
39848;SDS011;25518;47.878;15.914;2023-12-29T06:57:53;4.18;;;1.80;;
39848;SDS011;25518;47.878;15.914;2023-12-29T07:00:44;2.05;;;0.80;;
39848;SDS011;25518;47.878;15.914;2023-12-29T07:03:35;1.75;;;0.70;;
39848;SDS011;25518;47.878;15.914;2023-12-29T07:06:27;1.58;;;0.63;;
39848;SDS011;25518;47.878;15.914;2023-12-29T07:09:18;1.77;;;1.00;;
39848;SDS011;25518;47.878;15.914;2023-12-29T07:12:09;2.60;;;1.40;;
39848;SDS011;25518;47.878;15.914;2023-12-29T07:15:01;1.50;;;0.90;;
39848;SDS011;25518;47.878;15.914;2023-12-29T07:17:52;1.92;;;0.75;;
39848;SDS011;25518;47.878;15.914;2023-12-29T07:20:43;1.15;;;0.70;;
39848;SDS011;25518;47.878;15.914;2023-12-29T07:23:35;2.80;;;1.30;;
39848;SDS011;25518;47.878;15.914;2023-12-29T07:26:26;2.00;;;1.10;;
39848;SDS011;25518;47.878;15.914;2023-12-29T07:29:17;1.75;;;0.95;;
39848;SDS011;25518;47.878;15.914;2023-12-29T07:32:10;5.25;;;1.10;;
39848;SDS011;25518;47.878;15.914;2023-12-29T07:35:01;1.08;;;0.60;;
39848;SDS011;25518;47.878;15.914;2023-12-29T07:37:53;2.85;;;0.90;;
39848;SDS011;25518;47.878;15.914;2023-12-29T07:40:44;1.23;;;0.63;;
39848;SDS011;25518;47.878;15.914;2023-12-29T07:43:38;1.23;;;0.60;;
39848;SDS011;25518;47.878;15.914;2023-12-29T07:46:29;2.08;;;0.93;;
39848;SDS011;25518;47.878;15.914;2023-12-29T07:49:20;1.75;;;0.77;;
39848;SDS011;25518;47.878;15.914;2023-12-29T07:52:12;1.35;;;0.77;;
39848;SDS011;25518;47.878;15.914;2023-12-29T07:55:04;2.55;;;0.90;;
39848;SDS011;25518;47.878;15.914;2023-12-29T07:57:55;1.52;;;0.70;;
39848;SDS011;25518;47.878;15.914;2023-12-29T08:00:47;1.77;;;0.82;;
39848;SDS011;25518;47.878;15.914;2023-12-29T08:03:39;1.75;;;0.82;;
39848;SDS011;25518;47.878;15.914;2023-12-29T08:06:30;1.83;;;1.08;;
39848;SDS011;25518;47.878;15.914;2023-12-29T08:09:21;4.85;;;3.40;;
39848;SDS011;25518;47.878;15.914;2023-12-29T08:12:14;4.20;;;2.67;;
39848;SDS011;25518;47.878;15.914;2023-12-29T08:15:05;2.22;;;1.33;;
39848;SDS011;25518;47.878;15.914;2023-12-29T08:17:57;2.58;;;1.10;;
39848;SDS011;25518;47.878;15.914;2023-12-29T08:20:49;2.40;;;0.90;;
39848;SDS011;25518;47.878;15.914;2023-12-29T08:23:40;1.37;;;0.97;;
39848;SDS011;25518;47.878;15.914;2023-12-29T08:26:31;3.10;;;1.17;;
39848;SDS011;25518;47.878;15.914;2023-12-29T08:29:23;1.83;;;1.05;;
39848;SDS011;25518;47.878;15.914;2023-12-29T08:32:16;1.80;;;1.07;;
39848;SDS011;25518;47.878;15.914;2023-12-29T08:35:07;1.30;;;0.73;;
39848;SDS011;25518;47.878;15.914;2023-12-29T08:37:59;1.90;;;0.85;;
39848;SDS011;25518;47.878;15.914;2023-12-29T08:40:50;1.88;;;0.93;;
39848;SDS011;25518;47.878;15.914;2023-12-29T08:43:42;1.30;;;0.65;;
39848;SDS011;25518;47.878;15.914;2023-12-29T08:46:33;1.10;;;0.60;;
39848;SDS011;25518;47.878;15.914;2023-12-29T08:49:24;0.77;;;0.60;;
39848;SDS011;25518;47.878;15.914;2023-12-29T08:52:16;1.17;;;0.63;;
39848;SDS011;25518;47.878;15.914;2023-12-29T08:55:07;0.67;;;0.47;;
39848;SDS011;25518;47.878;15.914;2023-12-29T08:58:00;0.30;;;0.30;;
39848;SDS011;25518;47.878;15.914;2023-12-29T09:00:52;0.80;;;0.50;;
39848;SDS011;25518;47.878;15.914;2023-12-29T09:03:47;1.65;;;0.70;;
39848;SDS011;25518;47.878;15.914;2023-12-29T09:06:38;0.82;;;0.50;;
39848;SDS011;25518;47.878;15.914;2023-12-29T09:09:30;0.90;;;0.60;;
39848;SDS011;25518;47.878;15.914;2023-12-29T09:12:21;0.30;;;0.20;;
39848;SDS011;25518;47.878;15.914;2023-12-29T09:15:12;1.30;;;0.47;;
39848;SDS011;25518;47.878;15.914;2023-12-29T09:18:05;0.65;;;0.40;;
39848;SDS011;25518;47.878;15.914;2023-12-29T09:20:56;0.70;;;0.35;;
39848;SDS011;25518;47.878;15.914;2023-12-29T09:23:48;1.00;;;0.60;;
39848;SDS011;25518;47.878;15.914;2023-12-29T09:26:41;0.30;;;0.20;;
39848;SDS011;25518;47.878;15.914;2023-12-29T09:29:32;1.02;;;0.50;;
39848;SDS011;25518;47.878;15.914;2023-12-29T09:32:23;0.38;;;0.28;;
39848;SDS011;25518;47.878;15.914;2023-12-29T09:35:15;0.13;;;0.13;;
39848;SDS011;25518;47.878;15.914;2023-12-29T09:38:08;1.10;;;0.50;;
39848;SDS011;25518;47.878;15.914;2023-12-29T09:41:05;1.13;;;0.50;;
39848;SDS011;25518;47.878;15.914;2023-12-29T09:44:02;1.70;;;0.75;;
39848;SDS011;25518;47.878;15.914;2023-12-29T09:47:00;1.00;;;0.70;;
39848;SDS011;25518;47.878;15.914;2023-12-29T09:49:52;0.80;;;0.30;;
39848;SDS011;25518;47.878;15.914;2023-12-29T09:52:44;0.63;;;0.43;;
39848;SDS011;25518;47.878;15.914;2023-12-29T09:55:40;0.80;;;0.43;;
39848;SDS011;25518;47.878;15.914;2023-12-29T09:58:32;0.30;;;0.20;;
39848;SDS011;25518;47.878;15.914;2023-12-29T10:01:25;0.90;;;0.38;;
39848;SDS011;25518;47.878;15.914;2023-12-29T10:04:20;0.88;;;0.47;;
39848;SDS011;25518;47.878;15.914;2023-12-29T10:07:14;0.82;;;0.40;;
39848;SDS011;25518;47.878;15.914;2023-12-29T10:10:14;1.77;;;0.80;;
39848;SDS011;25518;47.878;15.914;2023-12-29T10:13:07;1.48;;;0.90;;
39848;SDS011;25518;47.878;15.914;2023-12-29T10:19:32;2.45;;;0.80;;
39848;SDS011;25518;47.878;15.914;2023-12-29T10:22:35;1.10;;;0.60;;
39848;SDS011;25518;47.878;15.914;2023-12-29T10:25:31;2.08;;;0.68;;
39848;SDS011;25518;47.878;15.914;2023-12-29T10:28:23;1.52;;;0.55;;
39848;SDS011;25518;47.878;15.914;2023-12-29T10:31:15;1.60;;;0.70;;
39848;SDS011;25518;47.878;15.914;2023-12-29T10:34:23;1.77;;;1.00;;
39848;SDS011;25518;47.878;15.914;2023-12-29T10:37:23;0.77;;;0.50;;
39848;SDS011;25518;47.878;15.914;2023-12-29T10:40:18;1.33;;;0.80;;
39848;SDS011;25518;47.878;15.914;2023-12-29T10:43:10;1.33;;;0.82;;
39848;SDS011;25518;47.878;15.914;2023-12-29T10:46:09;2.55;;;1.20;;
39848;SDS011;25518;47.878;15.914;2023-12-29T10:49:17;2.55;;;1.20;;
39848;SDS011;25518;47.878;15.914;2023-12-29T10:52:12;3.13;;;1.75;;
39848;SDS011;25518;47.878;15.914;2023-12-29T10:55:08;4.97;;;2.67;;
39848;SDS011;25518;47.878;15.914;2023-12-29T10:58:01;4.72;;;2.22;;
39848;SDS011;25518;47.878;15.914;2023-12-29T11:00:53;3.50;;;1.58;;
39848;SDS011;25518;47.878;15.914;2023-12-29T11:03:56;1.05;;;0.60;;
39848;SDS011;25518;47.878;15.914;2023-12-29T11:06:50;3.10;;;1.58;;
39848;SDS011;25518;47.878;15.914;2023-12-29T11:09:41;2.37;;;1.33;;
39848;SDS011;25518;47.878;15.914;2023-12-29T11:12:35;2.30;;;1.20;;
39848;SDS011;25518;47.878;15.914;2023-12-29T11:15:27;1.10;;;0.70;;
39848;SDS011;25518;47.878;15.914;2023-12-29T11:18:20;2.40;;;1.30;;
39848;SDS011;25518;47.878;15.914;2023-12-29T11:21:11;1.48;;;0.80;;
39848;SDS011;25518;47.878;15.914;2023-12-29T11:24:03;1.30;;;0.40;;
39848;SDS011;25518;47.878;15.914;2023-12-29T11:26:55;0.77;;;0.40;;
39848;SDS011;25518;47.878;15.914;2023-12-29T11:29:47;1.95;;;0.50;;
39848;SDS011;25518;47.878;15.914;2023-12-29T11:35:54;1.20;;;0.50;;
39848;SDS011;25518;47.878;15.914;2023-12-29T11:39:30;1.33;;;0.40;;
39848;SDS011;25518;47.878;15.914;2023-12-29T11:42:07;0.77;;;0.32;;
39848;SDS011;25518;47.878;15.914;2023-12-29T11:48:56;0.40;;;0.30;;
39848;SDS011;25518;47.878;15.914;2023-12-29T11:51:47;0.73;;;0.40;;
39848;SDS011;25518;47.878;15.914;2023-12-29T11:54:39;0.75;;;0.40;;
39848;SDS011;25518;47.878;15.914;2023-12-29T11:57:31;0.65;;;0.38;;
39848;SDS011;25518;47.878;15.914;2023-12-29T12:00:40;1.52;;;0.63;;
39848;SDS011;25518;47.878;15.914;2023-12-29T12:03:34;0.88;;;0.38;;
39848;SDS011;25518;47.878;15.914;2023-12-29T12:06:37;0.77;;;0.50;;
39848;SDS011;25518;47.878;15.914;2023-12-29T12:09:31;0.98;;;0.50;;
39848;SDS011;25518;47.878;15.914;2023-12-29T12:12:41;5.55;;;1.98;;
39848;SDS011;25518;47.878;15.914;2023-12-29T12:15:33;2.80;;;0.70;;
39848;SDS011;25518;47.878;15.914;2023-12-29T12:18:25;0.77;;;0.40;;
39848;SDS011;25518;47.878;15.914;2023-12-29T12:21:17;0.57;;;0.45;;
39848;SDS011;25518;47.878;15.914;2023-12-29T12:24:10;0.82;;;0.50;;
39848;SDS011;25518;47.878;15.914;2023-12-29T12:27:02;1.67;;;0.55;;
39848;SDS011;25518;47.878;15.914;2023-12-29T12:29:54;1.70;;;0.77;;
39848;SDS011;25518;47.878;15.914;2023-12-29T12:32:57;0.30;;;0.30;;
39848;SDS011;25518;47.878;15.914;2023-12-29T12:35:58;0.50;;;0.28;;
39848;SDS011;25518;47.878;15.914;2023-12-29T12:38:51;0.43;;;0.30;;
39848;SDS011;25518;47.878;15.914;2023-12-29T12:41:43;1.00;;;0.32;;
39848;SDS011;25518;47.878;15.914;2023-12-29T12:44:38;1.60;;;0.52;;
39848;SDS011;25518;47.878;15.914;2023-12-29T12:47:34;1.48;;;0.60;;
39848;SDS011;25518;47.878;15.914;2023-12-29T12:50:28;0.38;;;0.32;;
39848;SDS011;25518;47.878;15.914;2023-12-29T12:53:20;1.00;;;0.45;;
39848;SDS011;25518;47.878;15.914;2023-12-29T12:56:11;0.37;;;0.27;;
39848;SDS011;25518;47.878;15.914;2023-12-29T12:59:03;1.05;;;0.43;;
39848;SDS011;25518;47.878;15.914;2023-12-29T13:01:55;0.98;;;0.45;;
39848;SDS011;25518;47.878;15.914;2023-12-29T13:04:46;0.90;;;0.45;;
39848;SDS011;25518;47.878;15.914;2023-12-29T13:07:38;2.35;;;1.13;;
39848;SDS011;25518;47.878;15.914;2023-12-29T13:10:30;0.95;;;0.52;;
39848;SDS011;25518;47.878;15.914;2023-12-29T13:13:21;2.97;;;0.80;;
39848;SDS011;25518;47.878;15.914;2023-12-29T13:16:13;0.77;;;0.45;;
39848;SDS011;25518;47.878;15.914;2023-12-29T13:19:21;1.57;;;0.77;;
39848;SDS011;25518;47.878;15.914;2023-12-29T13:22:14;1.00;;;0.60;;
39848;SDS011;25518;47.878;15.914;2023-12-29T13:25:05;1.87;;;0.60;;
39848;SDS011;25518;47.878;15.914;2023-12-29T13:27:58;1.00;;;0.60;;
39848;SDS011;25518;47.878;15.914;2023-12-29T13:30:50;5.47;;;3.60;;
39848;SDS011;25518;47.878;15.914;2023-12-29T13:33:49;1.40;;;0.77;;
39848;SDS011;25518;47.878;15.914;2023-12-29T13:36:53;2.38;;;1.00;;
39848;SDS011;25518;47.878;15.914;2023-12-29T13:42:58;1.50;;;0.80;;
39848;SDS011;25518;47.878;15.914;2023-12-29T13:45:52;1.20;;;0.60;;
39848;SDS011;25518;47.878;15.914;2023-12-29T13:48:44;2.25;;;0.80;;
39848;SDS011;25518;47.878;15.914;2023-12-29T13:51:42;0.80;;;0.50;;
39848;SDS011;25518;47.878;15.914;2023-12-29T13:54:41;0.85;;;0.50;;
39848;SDS011;25518;47.878;15.914;2023-12-29T13:57:34;0.70;;;0.45;;
39848;SDS011;25518;47.878;15.914;2023-12-29T14:00:26;0.80;;;0.60;;
39848;SDS011;25518;47.878;15.914;2023-12-29T14:03:23;1.30;;;0.70;;
39848;SDS011;25518;47.878;15.914;2023-12-29T14:06:20;1.50;;;0.80;;
39848;SDS011;25518;47.878;15.914;2023-12-29T14:09:18;3.08;;;1.10;;
39848;SDS011;25518;47.878;15.914;2023-12-29T14:12:10;1.92;;;0.82;;
39848;SDS011;25518;47.878;15.914;2023-12-29T14:15:03;2.78;;;1.13;;
39848;SDS011;25518;47.878;15.914;2023-12-29T14:17:57;1.77;;;1.05;;
39848;SDS011;25518;47.878;15.914;2023-12-29T14:20:48;3.30;;;1.20;;
39848;SDS011;25518;47.878;15.914;2023-12-29T14:23:40;3.40;;;1.48;;
39848;SDS011;25518;47.878;15.914;2023-12-29T14:26:32;3.90;;;1.60;;
39848;SDS011;25518;47.878;15.914;2023-12-29T14:29:24;2.83;;;1.23;;
39848;SDS011;25518;47.878;15.914;2023-12-29T14:32:16;1.95;;;0.95;;
39848;SDS011;25518;47.878;15.914;2023-12-29T14:35:07;1.65;;;0.82;;
39848;SDS011;25518;47.878;15.914;2023-12-29T14:38:01;1.15;;;0.45;;
39848;SDS011;25518;47.878;15.914;2023-12-29T14:40:54;0.65;;;0.45;;
39848;SDS011;25518;47.878;15.914;2023-12-29T14:43:45;1.55;;;0.93;;
39848;SDS011;25518;47.878;15.914;2023-12-29T14:46:37;2.10;;;0.57;;
39848;SDS011;25518;47.878;15.914;2023-12-29T14:49:28;0.60;;;0.43;;
39848;SDS011;25518;47.878;15.914;2023-12-29T14:52:20;1.48;;;0.73;;
39848;SDS011;25518;47.878;15.914;2023-12-29T14:55:11;0.43;;;0.30;;
39848;SDS011;25518;47.878;15.914;2023-12-29T14:58:02;0.43;;;0.30;;
39848;SDS011;25518;47.878;15.914;2023-12-29T15:00:54;1.27;;;0.52;;
39848;SDS011;25518;47.878;15.914;2023-12-29T15:03:45;0.80;;;0.50;;
39848;SDS011;25518;47.878;15.914;2023-12-29T15:06:37;1.23;;;0.63;;
39848;SDS011;25518;47.878;15.914;2023-12-29T15:09:28;1.10;;;0.80;;
39848;SDS011;25518;47.878;15.914;2023-12-29T15:12:20;0.85;;;0.60;;
39848;SDS011;25518;47.878;15.914;2023-12-29T15:15:11;2.40;;;1.25;;
39848;SDS011;25518;47.878;15.914;2023-12-29T15:18:03;2.30;;;0.95;;
39848;SDS011;25518;47.878;15.914;2023-12-29T15:20:54;2.38;;;1.23;;
39848;SDS011;25518;47.878;15.914;2023-12-29T15:23:46;2.70;;;1.40;;
39848;SDS011;25518;47.878;15.914;2023-12-29T15:26:38;1.75;;;0.95;;
39848;SDS011;25518;47.878;15.914;2023-12-29T15:29:29;1.50;;;0.80;;
39848;SDS011;25518;47.878;15.914;2023-12-29T15:32:22;1.30;;;0.50;;
39848;SDS011;25518;47.878;15.914;2023-12-29T15:35:13;0.43;;;0.32;;
39848;SDS011;25518;47.878;15.914;2023-12-29T15:38:05;1.40;;;0.40;;
39848;SDS011;25518;47.878;15.914;2023-12-29T15:40:56;1.30;;;0.45;;
39848;SDS011;25518;47.878;15.914;2023-12-29T15:43:47;5.30;;;1.38;;
39848;SDS011;25518;47.878;15.914;2023-12-29T15:46:40;2.37;;;0.90;;
39848;SDS011;25518;47.878;15.914;2023-12-29T15:49:31;0.90;;;0.80;;
39848;SDS011;25518;47.878;15.914;2023-12-29T15:52:23;4.45;;;0.98;;
39848;SDS011;25518;47.878;15.914;2023-12-29T15:55:17;1.02;;;0.68;;
39848;SDS011;25518;47.878;15.914;2023-12-29T15:58:08;1.48;;;0.70;;
39848;SDS011;25518;47.878;15.914;2023-12-29T16:00:59;3.00;;;0.47;;
39848;SDS011;25518;47.878;15.914;2023-12-29T16:03:51;2.30;;;1.10;;
39848;SDS011;25518;47.878;15.914;2023-12-29T16:06:42;2.78;;;1.30;;
39848;SDS011;25518;47.878;15.914;2023-12-29T16:09:33;2.25;;;1.10;;
39848;SDS011;25518;47.878;15.914;2023-12-29T16:12:25;3.50;;;1.48;;
39848;SDS011;25518;47.878;15.914;2023-12-29T16:15:16;4.88;;;2.17;;
39848;SDS011;25518;47.878;15.914;2023-12-29T16:18:08;3.28;;;1.63;;
39848;SDS011;25518;47.878;15.914;2023-12-29T16:20:59;3.60;;;1.63;;
39848;SDS011;25518;47.878;15.914;2023-12-29T16:23:50;2.55;;;1.38;;
39848;SDS011;25518;47.878;15.914;2023-12-29T16:26:42;2.97;;;1.25;;
39848;SDS011;25518;47.878;15.914;2023-12-29T16:29:34;2.58;;;1.25;;
39848;SDS011;25518;47.878;15.914;2023-12-29T16:32:25;3.38;;;1.35;;
39848;SDS011;25518;47.878;15.914;2023-12-29T16:35:23;2.03;;;0.80;;
39848;SDS011;25518;47.878;15.914;2023-12-29T16:38:14;1.70;;;0.85;;
39848;SDS011;25518;47.878;15.914;2023-12-29T16:41:05;1.27;;;0.70;;
39848;SDS011;25518;47.878;15.914;2023-12-29T16:43:57;1.95;;;0.93;;
39848;SDS011;25518;47.878;15.914;2023-12-29T16:46:48;3.35;;;1.20;;
39848;SDS011;25518;47.878;15.914;2023-12-29T16:49:40;2.08;;;0.93;;
39848;SDS011;25518;47.878;15.914;2023-12-29T16:52:31;2.70;;;1.42;;
39848;SDS011;25518;47.878;15.914;2023-12-29T16:55:22;3.30;;;1.30;;
39848;SDS011;25518;47.878;15.914;2023-12-29T16:58:14;3.20;;;1.52;;
39848;SDS011;25518;47.878;15.914;2023-12-29T17:01:07;3.80;;;1.30;;
39848;SDS011;25518;47.878;15.914;2023-12-29T17:03:59;3.30;;;1.50;;
39848;SDS011;25518;47.878;15.914;2023-12-29T17:06:50;2.93;;;1.60;;
39848;SDS011;25518;47.878;15.914;2023-12-29T17:09:41;4.20;;;2.03;;
39848;SDS011;25518;47.878;15.914;2023-12-29T17:12:34;4.03;;;1.88;;
39848;SDS011;25518;47.878;15.914;2023-12-29T17:15:26;2.92;;;1.15;;
39848;SDS011;25518;47.878;15.914;2023-12-29T17:18:17;2.30;;;1.05;;